Time;durP1;ratioP1;P1;durP2;ratioP2;P2;SDS_P1;SDS_P2;PMS_P1;PMS_P2;Temp;Humidity;BMP_temperature;BMP_pressure;BME280_temperature;BME280_humidity;BME280_pressure;Samples;Min_cycle;Max_cycle;Signal;HPM_P1;HPM_P2
2021/08/02 00:01:03;;;;;;;6.17;5.58;;;;;;;30.38;63.44;100975.81;1542201;91;21091;-50
2021/08/02 00:03:45;;;;;;;7.53;5.53;;;;;;;30.36;63.50;100980.00;1514644;93;21177;-50
2021/08/02 00:06:23;;;;;;;7.17;5.20;;;;;;;30.37;63.50;100983.55;1493685;94;21211;-50
2021/08/02 00:09:06;;;;;;;6.97;6.15;;;;;;;30.35;63.54;100991.76;1484512;95;21127;-50
2021/08/02 00:11:39;;;;;;;7.60;6.05;;;;;;;30.34;63.53;100994.58;1504034;94;21105;-50
2021/08/02 00:14:08;;;;;;;9.58;5.90;;;;;;;30.33;63.51;100995.09;1465965;96;21127;-50
2021/08/02 00:16:37;;;;;;;9.90;5.70;;;;;;;30.33;63.47;100991.56;1477701;95;21188;-50
2021/08/02 00:19:05;;;;;;;8.58;6.12;;;;;;;30.33;63.41;100995.09;1509787;94;21228;-50
2021/08/02 00:21:33;;;;;;;9.33;6.17;;;;;;;30.34;63.39;101006.16;1506818;94;21165;-49
2021/08/02 00:24:00;;;;;;;9.88;6.05;;;;;;;30.34;63.35;101010.20;1499102;93;21715;-50
2021/08/02 00:26:27;;;;;;;6.08;5.37;;;;;;;30.34;63.36;101008.85;1521282;93;21169;-50
2021/08/02 00:28:57;;;;;;;7.45;5.55;;;;;;;30.33;63.37;101009.86;1507301;93;21728;-50
2021/08/02 00:31:24;;;;;;;10.72;5.75;;;;;;;30.33;63.38;101009.86;1508860;93;21626;-50
2021/08/02 00:33:52;;;;;;;9.10;5.87;;;;;;;30.34;63.35;101008.00;1494555;93;21117;-50
2021/08/02 00:36:45;;;;;;;7.03;5.85;;;;;;;30.34;63.37;101011.53;1511382;94;21626;-50
2021/08/02 00:39:48;;;;;;;8.33;6.10;;;;;;;30.34;63.39;101008.85;1491179;94;21089;-52
2021/08/02 00:43:09;;;;;;;11.22;6.12;;;;;;;30.33;63.45;101001.81;1504553;93;21163;-49
2021/08/02 00:45:36;;;;;;;9.90;6.17;;;;;;;30.34;63.48;100994.58;1482472;94;21112;-50
2021/08/02 00:48:08;;;;;;;8.23;6.15;;;;;;;30.32;63.61;100986.68;1503993;94;21088;-50
2021/08/02 00:50:42;;;;;;;7.72;6.03;;;;;;;30.31;63.64;100978.80;1495318;95;21096;-50
2021/08/02 00:53:22;;;;;;;6.20;5.50;;;;;;;30.29;63.71;100968.22;1499966;93;21149;-49
2021/08/02 00:55:52;;;;;;;9.28;6.15;;;;;;;30.28;63.76;100969.16;1466291;96;21217;-50
2021/08/02 00:58:21;;;;;;;8.60;5.87;;;;;;;30.27;63.87;100962.62;1458894;97;21116;-50
2021/08/02 01:00:48;;;;;;;7.80;6.25;;;;;;;30.25;63.93;100962.75;1474609;96;21153;-50
2021/08/02 01:03:16;;;;;;;6.28;5.65;;;;;;;30.25;63.92;100959.25;1505201;93;21144;-49
2021/08/02 01:05:47;;;;;;;6.62;5.90;;;;;;;30.25;63.93;100960.06;1520563;93;21079;-49
2021/08/02 01:08:24;;;;;;;8.23;5.85;;;;;;;30.23;63.91;100955.34;1481475;93;21116;-49
2021/08/02 01:10:54;;;;;;;8.63;5.25;;;;;;;30.23;63.92;100956.69;1518954;90;21522;-49
2021/08/02 01:13:25;;;;;;;6.58;5.95;;;;;;;30.22;63.93;100952.83;1554388;91;21561;-49
2021/08/02 01:15:54;;;;;;;9.50;6.08;;;;;;;30.22;63.83;100953.68;1540975;91;21045;-49
2021/08/02 01:18:23;;;;;;;7.00;5.60;;;;;;;30.21;63.80;100956.53;1541386;91;21153;-49
2021/08/02 01:20:53;;;;;;;9.45;6.22;;;;;;;30.20;63.75;100959.70;1539852;90;21076;-49
2021/08/02 01:23:21;;;;;;;9.13;5.47;;;;;;;30.20;63.79;100958.36;1530245;90;21093;-49
2021/08/02 01:25:58;;;;;;;;;;;;;;;30.18;63.79;100961.70;1515747;92;21109;-49
2021/08/02 01:28:31;;;;;;;7.08;5.47;;;;;;;30.19;63.80;100962.02;1544911;91;20448;-50
2021/08/02 01:31:01;;;;;;;11.60;6.47;;;;;;;30.17;63.81;100958.66;1544844;90;21083;-50
2021/08/02 01:33:32;;;;;;;8.60;5.65;;;;;;;30.17;63.79;100957.83;1541077;91;21119;-49
2021/08/02 01:36:05;;;;;;;7.33;5.80;;;;;;;30.17;63.69;100947.91;1544114;91;21561;-49
2021/08/02 01:38:33;;;;;;;9.35;6.70;;;;;;;30.17;63.78;100950.59;1543814;92;21076;-49
2021/08/02 01:41:03;;;;;;;11.33;6.17;;;;;;;30.18;63.82;100947.42;1543592;92;21164;-49
2021/08/02 01:43:33;;;;;;;9.03;5.67;;;;;;;30.18;63.84;100946.94;1544228;92;21122;-49
2021/08/02 01:46:18;;;;;;;7.37;5.83;;;;;;;30.16;63.85;100940.88;1542457;92;21167;-49
2021/08/02 01:49:06;;;;;;;5.92;5.33;;;;;;;30.16;63.85;100940.88;1565606;90;21597;-49
2021/08/02 01:51:44;;;;;;;9.25;5.87;;;;;;;30.17;63.94;100941.20;1560285;90;21043;-49
2021/08/02 01:54:41;;;;;;;6.67;5.97;;;;;;;30.16;64.01;100946.25;1583301;86;21620;-49
2021/08/02 01:57:48;;;;;;;6.70;5.95;;;;;;;30.16;64.03;100950.27;1669607;84;21046;-51
2021/08/02 02:00:25;;;;;;;6.83;5.62;;;;;;;30.16;64.07;100948.08;1597084;89;21593;-49
2021/08/02 02:03:07;;;;;;;9.68;6.00;;;;;;;30.15;64.10;100947.75;1584659;88;21162;-49
2021/08/02 02:05:37;;;;;;;7.97;5.58;;;;;;;30.15;64.09;100955.28;1572245;89;21062;-49
2021/08/02 02:08:22;;;;;;;6.60;5.72;;;;;;;30.15;64.08;100959.30;1582651;89;21550;-49
2021/08/02 02:10:56;;;;;;;6.75;6.15;;;;;;;30.13;64.13;100954.59;1626787;87;21070;-52
2021/08/02 02:13:32;;;;;;;6.87;6.17;;;;;;;30.14;64.17;100950.08;1632067;88;21009;-49
2021/08/02 02:15:59;;;;;;;6.10;5.50;;;;;;;30.13;64.12;100951.91;1635122;88;21006;-49
2021/08/02 02:18:29;;;;;;;11.25;6.53;;;;;;;30.12;64.19;100952.92;1634932;87;21061;-49
2021/08/02 02:20:58;;;;;;;8.60;5.92;;;;;;;30.12;64.24;100951.58;1635237;87;21545;-49
2021/08/02 02:23:24;;;;;;;6.87;6.25;;;;;;;30.11;64.33;100946.38;1613883;88;21034;-49
2021/08/02 02:25:52;;;;;;;7.75;5.90;;;;;;;30.11;64.35;100951.22;1635250;88;21084;-48
2021/08/02 02:28:21;;;;;;;8.58;5.85;;;;;;;30.11;64.43;100954.42;1634794;88;21039;-49
2021/08/02 02:30:48;;;;;;;8.28;6.55;;;;;;;30.12;64.48;100957.44;1635118;88;21013;-48
2021/08/02 02:59:26;;;;;;;8.75;7.80;;;;;;;27.68;77.22;100972.31;1806585;78;26460;-49
2021/08/02 03:01:55;;;;;;;12.25;7.87;;;;;;;28.98;70.78;100976.64;1766151;80;21081;-48
2021/08/02 03:04:28;;;;;;;8.70;6.55;;;;;;;29.22;69.65;100983.38;1737944;81;21109;-49
2021/08/02 03:06:55;;;;;;;8.73;7.33;;;;;;;29.08;70.16;100983.81;1664046;84;21038;-48
2021/08/02 03:09:22;;;;;;;7.75;6.87;;;;;;;29.12;70.12;100983.35;1673201;84;21058;-49
2021/08/02 03:11:51;;;;;;;8.20;7.35;;;;;;;29.19;69.95;100987.67;1671965;84;21131;-49
2021/08/02 03:14:18;;;;;;;12.63;7.00;;;;;;;29.47;69.06;100994.24;1662024;86;21038;-48
2021/08/02 03:16:47;;;;;;;8.18;6.87;;;;;;;29.59;68.62;100998.94;1633657;85;21574;-49
2021/08/02 03:19:13;;;;;;;9.35;6.80;;;;;;;29.65;68.39;100997.84;1626336;87;21617;-51
2021/08/02 03:21:40;;;;;;;9.43;6.95;;;;;;;29.73;68.21;100998.45;1677801;85;21137;-50
2021/08/02 03:24:33;;;;;;;11.35;7.25;;;;;;;29.79;67.97;100996.52;1680953;84;21073;-51
2021/08/02 03:27:29;;;;;;;10.70;7.87;;;;;;;29.86;67.79;100999.44;1673150;85;21087;-51
2021/08/02 03:30:00;;;;;;;11.63;8.83;;;;;;;29.90;67.63;100990.09;1681804;85;21114;-50
2021/08/02 03:32:27;;;;;;;15.58;14.18;;;;;;;29.95;67.51;101000.70;1682911;84;21006;-48
2021/08/02 03:34:58;;;;;;;14.03;12.65;;;;;;;30.01;67.35;101005.47;1689265;84;21082;-51
2021/08/02 03:37:25;;;;;;;13.58;10.85;;;;;;;30.08;67.20;101002.53;1682509;84;21046;-50
2021/08/02 03:39:54;;;;;;;13.48;9.53;;;;;;;30.18;67.06;101007.33;1684471;83;21034;-48
2021/08/02 03:42:22;;;;;;;7.28;6.55;;;;;;;30.33;66.77;101004.50;1672702;83;21006;-50
2021/08/02 03:44:49;;;;;;;13.20;7.30;;;;;;;30.56;66.30;101008.03;1674749;84;21054;-51
2021/08/02 03:47:18;;;;;;;19.45;7.28;;;;;;;30.82;65.45;101007.56;1670755;85;21058;-50
2021/08/02 03:49:45;;;;;;;9.75;6.22;;;;;;;31.06;64.27;101013.97;1670832;85;21045;-50
2021/08/02 03:52:13;;;;;;;13.60;5.53;;;;;;;31.26;63.42;101005.20;1671179;84;21094;-48
2021/08/02 03:54:40;;;;;;;9.75;5.87;;;;;;;31.41;62.74;101002.25;1661420;85;21083;-48
2021/08/02 03:57:06;;;;;;;10.00;5.78;;;;;;;31.51;62.18;101006.19;1682712;84;21521;-48
2021/08/02 03:59:34;;;;;;;8.30;6.33;;;;;;;31.41;62.24;101008.98;1681500;84;21047;-48
2021/08/02 04:02:00;;;;;;;9.00;6.10;;;;;;;31.43;62.05;101011.00;1680811;84;21003;-48
2021/08/02 04:04:27;;;;;;;7.22;5.75;;;;;;;31.40;62.09;101010.00;1680712;84;21084;-50
2021/08/02 04:06:54;;;;;;;8.10;6.85;;;;;;;31.35;62.11;101009.59;1679415;85;21001;-48
2021/08/02 04:09:21;;;;;;;10.98;6.40;;;;;;;31.32;62.10;101015.31;1686453;81;21013;-50
2021/08/02 04:11:47;;;;;;;11.97;5.78;;;;;;;31.45;61.59;101009.00;1739571;80;21003;-50
2021/08/02 04:14:15;;;;;;;23.52;6.58;;;;;;;31.33;61.82;101014.29;1759114;80;21056;-49
2021/08/02 04:16:42;;;;;;;12.28;10.03;;;;;;;31.21;62.10;101015.57;1771391;80;21006;-49
2021/08/02 04:19:08;;;;;;;19.62;15.60;;;;;;;31.33;61.66;101016.98;1756946;80;21011;-50
2021/08/02 04:21:36;;;;;;;9.15;7.17;;;;;;;31.30;61.73;101017.31;1763729;80;21519;-49
2021/08/02 04:24:06;;;;;;;21.27;7.20;;;;;;;31.27;61.79;101030.57;1749587;80;21047;-50
2021/08/02 04:26:33;;;;;;;10.63;6.30;;;;;;;31.11;62.20;101026.94;1781988;80;21577;-50
2021/08/02 04:28:59;;;;;;;17.17;13.53;;;;;;;31.11;62.19;101029.63;1763905;80;21499;-50
2021/08/02 04:31:29;;;;;;;15.72;14.03;;;;;;;31.00;62.48;101033.42;1751043;80;21042;-50
2021/08/02 04:33:56;;;;;;;17.02;12.90;;;;;;;30.99;62.60;101028.21;1771551;80;21062;-49
2021/08/02 04:36:23;;;;;;;12.37;8.75;;;;;;;31.06;62.33;101025.22;1772095;80;21070;-50
2021/08/02 04:38:51;;;;;;;10.40;7.28;;;;;;;31.01;62.44;101027.55;1752637;80;21034;-50
2021/08/02 04:41:18;;;;;;;10.65;5.97;;;;;;;31.04;62.27;101032.10;1748785;80;21519;-50
2021/08/02 04:43:44;;;;;;;8.23;6.37;;;;;;;31.06;62.25;101029.25;1740257;80;21037;-50
2021/08/02 04:46:11;;;;;;;12.88;6.08;;;;;;;31.04;62.33;101021.34;1766903;80;21019;-50
2021/08/02 04:48:38;;;;;;;8.58;6.20;;;;;;;31.03;62.38;101020.17;1760140;80;21080;-50
2021/08/02 04:51:06;;;;;;;10.48;6.83;;;;;;;31.02;62.47;101017.13;1757277;80;21023;-50
2021/08/02 04:53:32;;;;;;;12.10;6.65;;;;;;;31.03;62.53;101014.80;1749330;80;20984;-51
2021/08/02 04:55:59;;;;;;;7.42;5.58;;;;;;;31.03;62.54;101008.08;1762952;80;21002;-50
2021/08/02 04:58:26;;;;;;;9.10;5.80;;;;;;;31.03;62.59;101002.70;1777571;80;21038;-50
2021/08/02 05:00:52;;;;;;;7.42;6.42;;;;;;;31.04;62.57;101001.69;1763604;80;21530;-50
2021/08/02 05:03:20;;;;;;;13.62;12.18;;;;;;;31.05;62.53;100998.02;1749305;80;21546;-48
2021/08/02 05:05:47;;;;;;;9.20;8.20;;;;;;;31.06;62.46;100994.30;1741620;80;21042;-49
2021/08/02 05:08:14;;;;;;;13.68;8.18;;;;;;;31.07;62.45;100993.31;1766041;80;21002;-49
2021/08/02 05:10:42;;;;;;;10.23;8.20;;;;;;;31.09;62.47;100985.94;1778153;80;21053;-49
2021/08/02 05:13:09;;;;;;;11.97;6.95;;;;;;;31.09;62.48;100991.31;1773137;80;21027;-49
2021/08/02 05:15:36;;;;;;;8.15;6.28;;;;;;;31.10;62.54;100976.85;1764145;80;21031;-50
2021/08/02 05:18:03;;;;;;;9.13;5.47;;;;;;;31.12;62.57;100980.22;1784425;80;21033;-50
2021/08/02 05:20:30;;;;;;;7.92;5.87;;;;;;;31.13;62.51;100981.92;1758703;80;21050;-50
2021/08/02 05:22:57;;;;;;;9.80;5.78;;;;;;;31.15;62.54;100982.61;1747779;80;21030;-50
2021/08/02 05:25:26;;;;;;;7.42;5.35;;;;;;;31.14;62.61;100998.41;1758506;80;21023;-50
2021/08/02 05:27:53;;;;;;;8.68;5.87;;;;;;;31.14;62.67;101002.45;1773451;80;21038;-50
2021/08/02 05:30:20;;;;;;;9.53;6.37;;;;;;;31.07;62.99;101009.45;1765004;80;21014;-49
2021/08/02 05:32:46;;;;;;;9.43;6.20;;;;;;;31.09;63.00;101014.16;1760172;80;20980;-49
2021/08/02 05:35:14;;;;;;;8.70;6.67;;;;;;;31.26;62.38;101028.05;1762550;80;21529;-52
2021/08/02 05:37:40;;;;;;;9.65;7.20;;;;;;;31.36;62.08;101031.95;1755797;80;21046;-49
2021/08/02 05:40:08;;;;;;;11.40;7.70;;;;;;;31.47;61.88;101031.20;1747815;81;21492;-49
2021/08/02 05:42:36;;;;;;;8.78;6.62;;;;;;;31.65;61.55;101041.39;1748455;80;21042;-49
2021/08/02 05:45:05;;;;;;;9.65;6.33;;;;;;;31.84;60.97;101039.76;1760047;80;21536;-49
2021/08/02 05:47:33;;;;;;;12.58;8.18;;;;;;;32.05;60.35;101032.12;1764135;80;21529;-51
2021/08/02 05:49:59;;;;;;;14.07;8.10;;;;;;;32.22;59.64;101033.49;1762661;80;21459;-50
2021/08/02 05:52:28;;;;;;;10.30;8.35;;;;;;;32.31;59.12;101029.32;1751694;80;21337;-50
2021/08/02 05:54:55;;;;;;;14.95;10.10;;;;;;;32.41;58.72;101029.15;1769188;80;21044;-50
2021/08/02 05:57:22;;;;;;;7.72;6.90;;;;;;;32.49;58.47;101029.19;1753371;80;21038;-50
2021/08/02 05:59:49;;;;;;;10.20;8.03;;;;;;;32.55;58.13;101025.81;1756986;80;21003;-50
2021/08/02 06:02:17;;;;;;;13.15;7.67;;;;;;;32.53;58.09;101025.14;1764916;80;20978;-50
2021/08/02 06:04:44;;;;;;;12.13;7.53;;;;;;;32.55;57.95;101019.08;1749426;80;21481;-50
2021/08/02 06:07:10;;;;;;;13.83;6.53;;;;;;;32.54;57.89;101014.72;1754975;80;20970;-49
2021/08/02 06:09:37;;;;;;;8.00;6.62;;;;;;;32.56;57.79;101010.00;1756451;80;21026;-49
2021/08/02 06:12:06;;;;;;;6.90;6.20;;;;;;;32.58;57.60;101009.33;1762422;80;21059;-49
2021/08/02 06:14:34;;;;;;;10.82;7.05;;;;;;;32.70;57.19;101006.13;1745318;80;21486;-49
2021/08/02 06:17:04;;;;;;;9.25;7.03;;;;;;;32.77;56.98;101007.11;1749968;80;21035;-50
2021/08/02 06:19:31;;;;;;;9.05;7.50;;;;;;;32.79;56.89;101005.59;1771366;80;21482;-47
2021/08/02 06:21:58;;;;;;;12.35;6.10;;;;;;;32.80;56.85;101000.55;1753705;80;21026;-48
2021/08/02 06:24:24;;;;;;;9.60;5.80;;;;;;;32.82;56.79;101003.91;1745073;81;21522;-52
2021/08/02 06:26:51;;;;;;;10.90;5.87;;;;;;;32.82;56.83;100997.17;1747950;80;20999;-51
2021/08/02 06:29:18;;;;;;;8.90;6.40;;;;;;;32.81;57.01;100994.13;1758648;80;20987;-49
2021/08/02 06:31:45;;;;;;;7.83;5.40;;;;;;;32.81;57.22;100996.82;1768203;80;21505;-49
2021/08/02 06:34:11;;;;;;;9.93;5.30;;;;;;;32.79;57.40;100990.77;1778817;80;21101;-48
2021/08/02 06:36:39;;;;;;;9.65;5.30;;;;;;;32.80;57.51;100984.38;1728609;80;21133;-50
2021/08/02 06:39:06;;;;;;;10.20;5.22;;;;;;;32.79;57.78;100978.13;1746532;80;21038;-51
2021/08/02 06:41:33;;;;;;;7.45;6.00;;;;;;;32.79;58.03;100968.70;1737700;80;21071;-50
2021/08/02 06:44:00;;;;;;;10.48;5.28;;;;;;;32.81;58.22;100961.78;1751173;80;21001;-50
2021/08/02 06:46:27;;;;;;;9.05;5.30;;;;;;;32.81;58.39;100957.73;1744460;80;21473;-50
2021/08/02 06:48:53;;;;;;;9.05;5.30;;;;;;;32.73;58.67;100951.02;1753599;80;21055;-50
2021/08/02 06:51:20;;;;;;;8.10;5.10;;;;;;;32.69;58.88;100956.42;1712921;82;21543;-50
2021/08/02 06:53:47;;;;;;;9.08;4.87;;;;;;;32.75;58.68;100957.08;1692251;82;21090;-49
2021/08/02 06:56:14;;;;;;;8.95;5.17;;;;;;;32.84;58.33;100964.15;1696505;82;21576;-50
2021/08/02 06:58:41;;;;;;;8.23;5.33;;;;;;;32.85;58.23;100963.16;1743334;80;20998;-49
2021/08/02 07:01:08;;;;;;;7.25;4.70;;;;;;;32.71;58.70;100967.38;1763181;80;21029;-50
2021/08/02 07:03:34;;;;;;;8.73;4.90;;;;;;;32.76;58.71;100970.41;1751287;80;20939;-50
2021/08/02 07:06:01;;;;;;;8.00;5.33;;;;;;;32.84;58.37;100976.28;1749915;80;21012;-50
2021/08/02 07:08:28;;;;;;;6.00;4.40;;;;;;;32.85;58.31;100980.67;1743452;80;20999;-50
2021/08/02 07:10:55;;;;;;;5.75;4.90;;;;;;;32.83;58.35;100985.36;1752952;80;20991;-50
2021/08/02 07:13:22;;;;;;;10.88;5.80;;;;;;;32.75;58.59;100994.81;1730658;81;22757;-50
2021/08/02 07:15:50;;;;;;;13.25;9.65;;;;;;;32.77;58.57;100998.17;1738038;80;21042;-50
2021/08/02 07:18:20;;;;;;;13.78;5.97;;;;;;;32.82;58.47;100995.83;1737161;80;21498;-49
2021/08/02 07:20:48;;;;;;;11.12;5.45;;;;;;;32.84;58.40;100999.19;1745611;80;21106;-49
2021/08/02 07:23:15;;;;;;;8.55;4.35;;;;;;;32.88;58.33;100997.84;1753208;81;21569;-49
2021/08/02 07:25:43;;;;;;;10.45;5.72;;;;;;;32.91;58.21;101002.05;1755362;80;21047;-49
2021/08/02 07:28:09;;;;;;;8.68;5.50;;;;;;;32.93;58.08;100998.17;1753710;80;21553;-49
2021/08/02 07:30:36;;;;;;;9.15;5.40;;;;;;;32.95;57.90;101004.23;1749199;80;21020;-49
2021/08/02 07:33:03;;;;;;;11.30;5.05;;;;;;;32.95;57.92;100999.34;1772041;80;21055;-50
2021/08/02 07:35:30;;;;;;;8.75;5.40;;;;;;;32.96;57.86;101002.36;1775620;80;20979;-49
2021/08/02 07:37:58;;;;;;;8.15;5.53;;;;;;;32.98;57.72;101003.91;1749714;80;21663;-49
2021/08/02 07:40:25;;;;;;;7.87;4.60;;;;;;;33.00;57.57;101007.27;1756101;80;21160;-49
2021/08/02 07:42:53;;;;;;;8.25;5.03;;;;;;;33.04;57.43;101003.22;1750698;80;21003;-49
2021/08/02 07:45:20;;;;;;;7.70;4.87;;;;;;;33.07;57.23;101000.20;1740397;80;22663;-49
2021/08/02 07:47:46;;;;;;;7.03;4.42;;;;;;;33.08;57.12;100996.47;1741959;80;21069;-48
2021/08/02 07:50:15;;;;;;;9.98;5.55;;;;;;;33.09;56.96;100992.77;1747602;80;21050;-50
2021/08/02 07:52:44;;;;;;;6.92;5.17;;;;;;;33.11;56.82;100998.84;1738169;81;21058;-49
2021/08/02 07:55:13;;;;;;;14.63;10.95;;;;;;;33.11;56.74;100993.44;1693914;83;21992;-49
2021/08/02 07:57:41;;;;;;;11.75;7.75;;;;;;;33.14;56.67;100997.66;1685750;83;21066;-49
2021/08/02 08:00:11;;;;;;;8.63;5.55;;;;;;;33.15;56.60;100992.08;1697564;83;21074;-50
2021/08/02 08:02:39;;;;;;;9.75;5.53;;;;;;;33.18;56.54;100993.06;1696473;83;21019;-50
2021/08/02 08:05:06;;;;;;;9.58;5.45;;;;;;;33.19;56.53;100994.77;1689801;83;21510;-50
2021/08/02 08:07:47;;;;;;;7.28;4.50;;;;;;;33.21;56.47;100985.14;1698926;83;21033;-51
2021/08/02 08:10:16;;;;;;;11.12;5.10;;;;;;;33.23;56.41;100985.31;1634567;87;21107;-51
2021/08/02 08:12:44;;;;;;;6.90;4.35;;;;;;;33.25;56.25;100990.02;1641195;87;21106;-50
2021/08/02 08:15:11;;;;;;;6.97;4.40;;;;;;;33.25;56.14;100988.67;1642205;87;21045;-50
2021/08/02 08:17:38;;;;;;;10.93;4.67;;;;;;;33.28;56.11;100993.73;1641689;87;21066;-50
2021/08/02 08:20:08;;;;;;;6.72;4.40;;;;;;;33.29;56.01;100990.51;1629930;87;21501;-50
2021/08/02 08:22:36;;;;;;;9.20;5.25;;;;;;;33.31;55.93;100988.48;1630318;87;20996;-49
2021/08/02 08:25:03;;;;;;;9.48;5.40;;;;;;;33.31;55.94;100992.02;1642352;87;21014;-50
2021/08/02 08:27:30;;;;;;;6.83;4.45;;;;;;;33.33;55.93;100989.99;1639402;87;21564;-50
2021/08/02 08:29:57;;;;;;;6.80;4.30;;;;;;;33.35;55.81;100992.01;1625062;87;21069;-51
2021/08/02 08:32:24;;;;;;;9.93;4.80;;;;;;;33.37;55.75;100992.67;1636133;87;20995;-50
2021/08/02 08:34:51;;;;;;;7.72;5.03;;;;;;;33.41;55.56;100983.72;1634909;87;21054;-51
2021/08/02 08:37:19;;;;;;;8.08;5.45;;;;;;;33.43;55.49;100991.97;1634917;87;21041;-50
2021/08/02 08:39:45;;;;;;;10.35;4.45;;;;;;;33.44;55.33;100992.32;1640317;87;20995;-49
2021/08/02 08:42:14;;;;;;;5.90;3.95;;;;;;;33.44;55.21;100992.32;1630114;87;21108;-50
2021/08/02 08:44:43;;;;;;;11.43;5.37;;;;;;;33.42;55.19;100983.56;1632155;87;21020;-49
2021/08/02 08:49:42;;;;;;;9.65;4.95;;;;;;;33.37;55.11;100982.38;1581270;88;21965;-50
2021/08/02 08:52:09;;;;;;;11.33;5.62;;;;;;;33.35;55.13;100979.87;1633411;84;21458;-50
2021/08/02 08:54:37;;;;;;;9.43;4.83;;;;;;;33.35;55.10;100981.72;1621191;87;21039;-49
2021/08/02 08:57:07;;;;;;;7.42;4.87;;;;;;;33.34;55.08;100975.51;1607518;87;21197;-48
2021/08/02 08:59:52;;;;;;;7.28;4.42;;;;;;;33.34;55.03;100972.81;1621760;87;21065;-50
2021/08/02 09:02:26;;;;;;;9.50;4.50;;;;;;;33.36;54.88;100977.52;1654853;85;21105;-50
2021/08/02 09:05:01;;;;;;;8.28;4.80;;;;;;;33.38;54.89;100974.14;1640369;87;21065;-49
2021/08/02 09:07:40;;;;;;;9.05;4.70;;;;;;;33.42;54.78;100983.56;1644679;85;21022;-50
2021/08/02 09:10:16;;;;;;;8.95;5.50;;;;;;;33.46;54.78;100986.24;1643680;86;21166;-50
2021/08/02 09:12:56;;;;;;;17.07;15.03;;;;;;;33.49;54.70;100983.74;1655159;86;21610;-49
2021/08/02 09:15:37;;;;;;;14.53;11.20;;;;;;;33.52;54.56;100985.57;1631729;86;21048;-50
2021/08/02 09:18:09;;;;;;;11.93;5.80;;;;;;;33.54;54.47;100981.34;1587747;89;21584;-51
2021/08/02 09:20:38;;;;;;;9.40;5.60;;;;;;;33.53;54.35;100979.67;1575794;90;21089;-50
2021/08/02 09:23:13;;;;;;;8.33;4.37;;;;;;;33.51;54.34;100974.96;1519826;93;21102;-50
2021/08/02 09:25:52;;;;;;;9.45;4.62;;;;;;;33.47;54.39;100969.02;1494507;92;21145;-50
2021/08/02 09:28:23;;;;;;;6.92;4.50;;;;;;;33.44;54.38;100968.54;1438220;97;21077;-50
2021/08/02 09:31:00;;;;;;;7.70;4.20;;;;;;;33.42;54.48;100961.98;1444266;97;21226;-50
2021/08/02 09:33:45;;;;;;;7.87;4.60;;;;;;;33.42;54.47;100961.98;1405842;100;21145;-49
2021/08/02 09:36:13;;;;;;;7.42;4.37;;;;;;;33.42;54.46;100957.09;1383856;101;21139;-47
2021/08/02 09:38:40;;;;;;;6.78;4.78;;;;;;;33.40;54.41;100959.97;1392491;101;21212;-49
2021/08/02 09:41:07;;;;;;;11.10;4.42;;;;;;;33.38;54.38;100957.95;1366939;102;21178;-48
2021/08/02 09:43:35;;;;;;;6.90;4.20;;;;;;;33.37;54.29;100956.25;1394696;101;21155;-49
2021/08/02 09:46:03;;;;;;;6.42;5.08;;;;;;;33.37;54.32;100956.25;1377738;102;21156;-49
2021/08/02 09:48:42;;;;;;;8.45;4.53;;;;;;;33.37;54.27;100956.25;1392611;101;21933;-49
2021/08/02 09:51:15;;;;;;;6.70;5.12;;;;;;;33.37;54.18;100957.61;1363168;103;21280;-49
2021/08/02 09:53:50;;;;;;;8.78;5.28;;;;;;;33.38;54.25;100952.56;1380878;100;21640;-49
2021/08/02 09:56:22;;;;;;;9.68;5.08;;;;;;;33.40;54.15;100949.17;1410478;100;21245;-48
2021/08/02 09:58:50;;;;;;;10.88;5.45;;;;;;;33.43;53.99;100947.45;1386471;102;21256;-49
2021/08/02 10:01:19;;;;;;;10.88;6.47;;;;;;;33.46;54.02;100949.81;1375855;103;21111;-49
2021/08/02 10:03:46;;;;;;;7.95;6.00;;;;;;;33.48;54.04;100949.13;1367000;103;21185;-49
2021/08/02 10:06:15;;;;;;;15.28;8.60;;;;;;;33.53;54.04;100950.81;1356084;104;21182;-50
2021/08/02 10:08:43;;;;;;;9.93;6.10;;;;;;;33.58;53.77;100942.19;1373415;103;21276;-49
2021/08/02 10:11:10;;;;;;;10.28;7.72;;;;;;;33.58;53.72;100944.39;1374348;103;21112;-49
2021/08/02 10:13:43;;;;;;;8.83;6.40;;;;;;;33.60;53.70;100943.70;1376271;102;21182;-49
2021/08/02 10:16:15;;;;;;;9.65;5.10;;;;;;;33.62;53.58;100943.02;1339722;105;21249;-50
2021/08/02 10:18:50;;;;;;;13.05;8.30;;;;;;;33.64;53.61;100936.93;1361071;103;21658;-49
2021/08/02 10:21:17;;;;;;;12.65;8.13;;;;;;;33.67;53.59;100943.84;1381235;101;21186;-50
2021/08/02 10:23:44;;;;;;;7.53;5.12;;;;;;;33.69;53.56;100939.60;1384047;99;21233;-50
2021/08/02 10:26:29;;;;;;;8.88;5.35;;;;;;;33.70;53.50;100945.31;1413955;100;21120;-49
2021/08/02 10:28:58;;;;;;;11.60;6.85;;;;;;;33.70;53.54;100949.36;1415164;99;21248;-49
2021/08/02 10:31:26;;;;;;;11.90;6.62;;;;;;;33.70;53.47;100945.31;1491861;93;21150;-50
2021/08/02 10:33:54;;;;;;;12.18;5.58;;;;;;;33.68;53.44;100944.16;1489492;94;21104;-49
2021/08/02 10:36:22;;;;;;;11.50;5.35;;;;;;;33.69;53.29;100943.66;1492325;94;21159;-49
2021/08/02 10:38:53;;;;;;;9.48;5.58;;;;;;;33.67;53.27;100942.98;1476321;94;21134;-50
2021/08/02 10:41:29;;;;;;;9.80;5.12;;;;;;;33.67;53.42;100940.29;1498886;95;21176;-50
2021/08/02 10:43:57;;;;;;;10.82;5.33;;;;;;;33.67;53.37;100944.34;1469049;95;21714;-49
2021/08/02 10:46:28;;;;;;;12.23;5.53;;;;;;;33.67;53.42;100937.59;1477518;95;21084;-48
2021/08/02 10:49:09;;;;;;;8.93;4.80;;;;;;;33.67;53.41;100940.29;1470905;95;21066;-50
2021/08/02 10:51:51;;;;;;;10.18;4.35;;;;;;;33.67;53.38;100938.94;1464387;96;21127;-49
2021/08/02 10:54:18;;;;;;;8.55;4.58;;;;;;;33.67;53.45;100943.84;1466890;96;21160;-49
2021/08/02 10:56:48;;;;;;;19.67;15.03;;;;;;;33.67;53.54;100937.59;1545577;90;21636;-51
2021/08/02 10:59:22;;;;;;;19.57;14.53;;;;;;;33.68;53.51;100933.86;1565668;90;21156;-49
2021/08/02 11:01:52;;;;;;;17.67;10.32;;;;;;;33.65;53.55;100935.08;1535241;91;21081;-50
2021/08/02 11:04:21;;;;;;;10.03;4.90;;;;;;;33.68;53.53;100935.20;1523074;91;21051;-49
2021/08/02 11:06:53;;;;;;;10.53;4.87;;;;;;;33.69;53.53;100930.16;1534585;91;21064;-49
2021/08/02 11:09:28;;;;;;;5.97;4.47;;;;;;;33.70;53.40;100924.57;1527544;90;21402;-49
2021/08/02 11:12:13;;;;;;;9.05;4.25;;;;;;;33.72;53.30;100929.81;1556646;90;21150;-49
2021/08/02 11:14:50;;;;;;;6.75;4.22;;;;;;;33.71;53.26;100917.33;1493164;94;21111;-50
2021/08/02 11:17:20;;;;;;;9.25;4.22;;;;;;;33.71;53.16;100915.97;1483718;95;21603;-50
2021/08/02 11:19:54;;;;;;;7.00;4.30;;;;;;;33.70;53.09;100913.78;1483658;95;21139;-49
2021/08/02 11:22:21;;;;;;;8.70;4.92;;;;;;;33.70;53.03;100903.48;1483531;95;21121;-49
2021/08/02 11:24:54;;;;;;;8.38;4.25;;;;;;;33.70;53.15;100896.73;1486654;95;21597;-49
2021/08/02 11:27:21;;;;;;;8.63;4.50;;;;;;;33.71;53.10;100901.13;1452540;98;21187;-49
2021/08/02 11:29:49;;;;;;;6.03;3.77;;;;;;;33.71;53.02;100888.98;1429028;99;21172;-49
2021/08/02 11:32:16;;;;;;;9.75;4.75;;;;;;;33.74;52.79;100887.30;1441196;98;21655;-50
2021/08/02 11:34:45;;;;;;;8.68;4.40;;;;;;;33.73;52.71;100881.05;1425420;100;21119;-50
2021/08/02 11:37:14;;;;;;;10.43;4.12;;;;;;;33.72;52.67;100873.95;1448540;96;21239;-49
2021/08/02 11:39:45;;;;;;;11.65;4.80;;;;;;;33.72;52.66;100866.39;1490570;95;21153;-48
2021/08/02 11:42:17;;;;;;;11.20;4.72;;;;;;;33.71;52.62;100863.34;1479264;96;21648;-49
2021/08/02 11:44:47;;;;;;;7.42;4.28;;;;;;;33.70;52.61;100861.65;1440495;98;21117;-50
2021/08/02 11:47:25;;;;;;;11.33;5.70;;;;;;;33.69;52.50;100851.89;1418138;98;21654;-49
2021/08/02 11:49:53;;;;;;;13.00;5.03;;;;;;;33.68;52.51;100851.05;1437105;99;21288;-50
2021/08/02 11:52:22;;;;;;;11.22;4.53;;;;;;;33.67;52.41;100841.78;1426739;99;21066;-49
2021/08/02 11:55:07;;;;;;;15.00;5.37;;;;;;;33.67;52.45;100845.83;1428972;99;21173;-49
2021/08/02 11:57:34;;;;;;;9.65;5.47;;;;;;;33.67;52.42;100839.09;1398390;101;21636;-49
2021/08/02 12:00:10;;;;;;;8.08;5.45;;;;;;;33.65;52.37;100829.83;1406970;101;21116;-50
2021/08/02 12:02:43;;;;;;;10.63;5.58;;;;;;;33.64;52.36;100830.84;1445585;98;21149;-50
2021/08/02 12:05:28;;;;;;;10.80;5.00;;;;;;;33.63;52.32;100835.38;1464283;97;21200;-49